Time;durP1;ratioP1;P1;durP2;ratioP2;P2;SDS_P1;SDS_P2;PMS_P1;PMS_P2;Temp;Humidity;BMP_temperature;BMP_pressure;BME280_temperature;BME280_humidity;BME280_pressure;Samples;Min_cycle;Max_cycle;Signal;HPM_P1;HPM_P2
2022/06/06 00:01:53;180615.00;0.60;312.55;0.00;0.00;0.62;;;;;18.50;4.10;;;;;;2284711;60;1132;-87
2022/06/06 00:04:22;126103.00;0.42;218.61;0.00;0.00;0.62;;;;;18.40;4.80;;;;;;2284289;60;1089;-86
2022/06/06 00:06:52;26302.00;0.09;46.18;0.00;0.00;0.62;;;;;18.50;4.20;;;;;;2284279;60;1312;-85
2022/06/06 00:09:19;120034280.00;400.11;70060056.00;119749696.00;399.17;69562480.00;;;;;18.60;4.70;;;;;;2284594;60;2014;-86
2022/06/06 00:11:46;160452.00;0.53;277.82;0.00;0.00;0.62;;;;;18.80;3.10;;;;;;2284656;60;1045;-85
2022/06/06 00:14:15;522646.00;1.74;900.82;28837.00;0.10;50.57;;;;;18.70;2.90;;;;;;2284659;60;1133;-85
2022/06/06 00:16:42;12432.00;0.04;22.16;0.00;0.00;0.62;;;;;18.70;3.40;;;;;;2284630;60;1308;-85
2022/06/06 00:19:11;159116.00;0.53;275.52;0.00;0.00;0.62;;;;;19.00;2.10;;;;;;2284541;60;1698;-87
2022/06/06 00:21:39;204802.00;0.68;354.19;0.00;0.00;0.62;;;;;19.10;1.00;;;;;;2284544;60;1599;-86
2022/06/06 00:24:06;185495.00;0.62;320.95;0.00;0.00;0.62;;;;;19.30;1.00;;;;;;2284571;60;980;-87
2022/06/06 00:26:34;159837.00;0.53;276.76;0.00;0.00;0.62;;;;;19.50;1.00;;;;;;2284386;60;1607;-85
2022/06/06 00:29:03;254548.00;0.85;439.77;58384.00;0.19;101.68;;;;;19.40;1.00;;;;;;2284598;60;1919;-86
2022/06/06 00:37:03;0.00;0.00;0.62;0.00;0.00;0.62;;;;;19.30;1.00;;;;;;2284611;60;730;-86
2022/06/06 00:40:14;119760.00;0.40;207.67;0.00;0.00;0.62;;;;;19.40;1.00;;;;;;2284404;60;1168;-85
2022/06/06 00:42:42;4709.00;0.02;8.78;0.00;0.00;0.62;;;;;19.60;1.00;;;;;;2284597;60;1123;-84
2022/06/06 00:45:37;0.00;0.00;0.62;0.00;0.00;0.62;;;;;19.80;1.00;;;;;;2284557;60;1416;-86
2022/06/06 00:48:16;6792.00;0.02;12.39;0.00;0.00;0.62;;;;;20.00;1.00;;;;;;2284128;60;1740;-85
2022/06/06 00:51:01;22730.00;0.08;40.00;0.00;0.00;0.62;;;;;19.60;1.00;;;;;;2284498;60;1187;-87
2022/06/06 00:53:33;80860.00;0.27;140.52;0.00;0.00;0.62;;;;;19.00;1.50;;;;;;2284462;60;917;-88
2022/06/06 00:56:07;202521.00;0.68;350.26;79107.00;0.26;137.49;;;;;18.80;2.00;;;;;;2284519;60;1447;-87
2022/06/06 00:58:37;164807.00;0.55;285.32;75681.00;0.25;131.58;;;;;18.80;2.80;;;;;;2284436;60;2215;-86
2022/06/06 01:01:05;255579.00;0.85;441.55;76000.00;0.25;132.13;;;;;18.80;2.60;;;;;;2284505;60;1086;-87
2022/06/06 01:03:37;176148.00;0.59;304.86;87917.00;0.29;152.71;;;;;18.90;2.40;;;;;;2284491;60;1135;-86
2022/06/06 01:06:08;190784.00;0.64;330.06;72449.00;0.24;125.99;;;;;19.30;1.80;;;;;;2284376;60;1379;-86
2022/06/06 01:08:38;212792.00;0.71;367.94;65229.00;0.22;113.52;;;;;19.80;1.00;;;;;;2284453;60;1919;-87
2022/06/06 01:11:06;167925.00;0.56;290.69;80706.00;0.27;140.26;;;;;19.90;1.00;;;;;;2284489;60;1031;-87
2022/06/06 01:13:34;176133.00;0.59;304.83;99925.00;0.33;173.44;;;;;19.90;1.00;;;;;;2284398;60;954;-88
2022/06/06 01:16:17;298488.00;0.99;515.32;96034.00;0.32;166.73;;;;;19.70;1.00;;;;;;2284462;60;1393;-87
2022/06/06 01:19:02;364003.00;1.21;627.93;74530.00;0.25;129.59;;;;;19.60;1.00;;;;;;2284483;60;1075;-87
2022/06/06 01:22:00;472502.00;1.58;814.49;77361.00;0.26;134.48;;;;;19.70;1.00;;;;;;2284465;60;1175;-88
2022/06/06 01:24:51;324836.00;1.08;560.61;25106.00;0.08;44.11;;;;;19.60;1.00;;;;;;2284413;60;1105;-87
2022/06/06 01:27:49;221802.00;0.74;383.44;0.00;0.00;0.62;;;;;19.60;1.00;;;;;;2284399;60;1717;-87
2022/06/06 01:30:22;279197.00;0.93;482.16;0.00;0.00;0.62;;;;;19.00;1.00;;;;;;2284354;60;1924;-89
2022/06/06 01:32:54;384937.00;1.28;663.91;80590.00;0.27;140.06;;;;;18.40;2.80;;;;;;2284343;60;1789;-85
2022/06/06 01:35:28;300478.00;1.00;518.74;0.00;0.00;0.62;;;;;18.50;2.90;;;;;;2284237;60;1397;-85
2022/06/06 01:37:55;249625.00;0.83;431.31;0.00;0.00;0.62;;;;;18.60;2.10;;;;;;2284439;60;1146;-86
2022/06/06 01:40:23;271281.00;0.90;468.55;0.00;0.00;0.62;;;;;18.90;1.50;;;;;;2284359;60;1150;-85
2022/06/06 01:42:55;136749.00;0.46;236.97;0.00;0.00;0.62;;;;;18.90;1.30;;;;;;2284353;60;1717;-86
2022/06/06 01:45:30;213838.00;0.71;369.74;0.00;0.00;0.62;;;;;18.90;1.00;;;;;;2284348;60;1384;-86
2022/06/06 01:48:04;263669.00;0.88;455.46;41759.00;0.14;72.93;;;;;18.90;1.00;;;;;;2284360;60;1081;-87
2022/06/06 01:50:32;152224.00;0.51;263.64;0.00;0.00;0.62;;;;;18.70;1.10;;;;;;2284337;60;1932;-86
2022/06/06 01:53:02;108711.00;0.36;188.61;0.00;0.00;0.62;;;;;18.70;2.00;;;;;;2284247;60;1123;-86
2022/06/06 01:55:31;63580.00;0.21;110.67;0.00;0.00;0.62;;;;;18.80;1.60;;;;;;2284270;60;1492;-86
2022/06/06 01:58:02;131827.00;0.44;228.48;0.00;0.00;0.62;;;;;18.70;1.70;;;;;;2284339;60;1050;-88
2022/06/06 02:00:32;66413.00;0.22;115.56;0.00;0.00;0.62;;;;;18.60;1.00;;;;;;2284939;60;987;-88
2022/06/06 02:02:59;198122.00;0.66;342.69;11783.00;0.04;21.04;;;;;18.40;2.00;;;;;;2284995;60;1179;-85
2022/06/06 02:05:27;75142.00;0.25;130.65;0.00;0.00;0.62;;;;;18.30;2.90;;;;;;2284914;60;1314;-88
2022/06/06 02:07:54;32636.00;0.11;57.15;0.00;0.00;0.62;;;;;18.30;2.40;;;;;;2285098;60;1097;-86
2022/06/06 02:10:22;92523.00;0.31;160.66;0.00;0.00;0.62;;;;;18.50;2.00;;;;;;2284806;60;1915;-83
2022/06/06 02:12:49;194438.00;0.65;336.35;0.00;0.00;0.62;;;;;18.70;1.70;;;;;;2285003;60;1018;-87
2022/06/06 02:15:18;458171.00;1.53;789.84;56822.00;0.19;98.98;;;;;18.70;1.70;;;;;;2284865;60;1550;-85
2022/06/06 02:17:47;232913.00;0.78;402.56;0.00;0.00;0.62;;;;;19.00;2.40;;;;;;2284965;60;1166;-84
2022/06/06 02:20:17;316043.00;1.05;545.50;0.00;0.00;0.62;;;;;19.20;1.00;;;;;;2284980;60;1583;-87
2022/06/06 02:22:45;165559.00;0.55;286.62;0.00;0.00;0.62;;;;;19.00;1.00;;;;;;2284972;60;1133;-86
2022/06/06 02:25:14;254922.00;0.85;440.42;0.00;0.00;0.62;;;;;19.20;1.00;;;;;;2284893;60;1413;-86
2022/06/06 02:27:42;6997.00;0.02;12.75;0.00;0.00;0.62;;;;;19.20;1.00;;;;;;2284845;60;1248;-88
2022/06/06 02:30:14;187913.00;0.63;325.12;0.00;0.00;0.62;;;;;19.20;1.00;;;;;;2284815;60;1991;-87
2022/06/06 02:32:41;451589.00;1.51;778.52;41922.00;0.14;73.21;;;;;19.10;1.00;;;;;;2284847;60;1111;-87
2022/06/06 02:35:13;109326.00;0.36;189.67;0.00;0.00;0.62;;;;;19.10;1.00;;;;;;2284850;60;1311;-86
2022/06/06 02:37:41;13902.00;0.05;24.71;0.00;0.00;0.62;;;;;19.00;1.00;;;;;;2284933;60;1159;-87
2022/06/06 02:40:12;114175.00;0.38;198.03;0.00;0.00;0.62;;;;;19.10;1.00;;;;;;2284939;60;935;-86
2022/06/06 02:42:40;115617.00;0.39;200.52;0.00;0.00;0.62;;;;;19.00;1.00;;;;;;2284979;60;1077;-87
2022/06/06 02:45:09;132827.00;0.44;230.20;0.00;0.00;0.62;;;;;18.80;1.00;;;;;;2284854;60;1346;-87
2022/06/06 02:47:36;123130.00;0.41;213.48;0.00;0.00;0.62;;;;;18.80;1.00;;;;;;2284949;60;1232;-87
2022/06/06 02:50:04;100395.00;0.33;174.25;0.00;0.00;0.62;;;;;18.90;1.00;;;;;;2284877;60;1988;-88
2022/06/06 02:52:33;111698.00;0.37;193.76;0.00;0.00;0.62;;;;;18.70;1.00;;;;;;2284914;60;1113;-86
2022/06/06 02:55:01;0.00;0.00;0.62;0.00;0.00;0.62;;;;;18.50;2.60;;;;;;2284874;60;1299;-87
2022/06/06 02:57:29;14418.00;0.05;25.60;0.00;0.00;0.62;;;;;18.60;1.00;;;;;;2284819;60;1056;-86
2022/06/06 03:00:00;594964.00;1.98;1025.53;192749.00;0.64;333.44;;;;;19.00;1.00;;;;;;2284808;60;1759;-90
2022/06/06 03:02:28;164110.00;0.55;284.12;0.00;0.00;0.62;;;;;19.10;1.00;;;;;;2284886;60;1025;-87
2022/06/06 03:04:54;0.00;0.00;0.62;0.00;0.00;0.62;;;;;19.20;1.00;;;;;;2284775;60;1269;-86
2022/06/06 03:07:29;146203.00;0.49;253.26;0.00;0.00;0.62;;;;;19.60;1.00;;;;;;2284843;60;1114;-87
2022/06/06 03:10:12;82881.00;0.28;144.01;0.00;0.00;0.62;;;;;19.50;1.00;;;;;;2284736;60;1982;-86
2022/06/06 03:13:00;198910.00;0.66;344.05;0.00;0.00;0.62;;;;;19.70;1.00;;;;;;2284783;60;1079;-85
2022/06/06 03:20:46;7651.00;0.03;13.88;0.00;0.00;0.62;;;;;19.60;1.00;;;;;;2284577;60;1358;-85
2022/06/06 03:21:45;70833.00;0.24;123.20;0.00;0.00;0.62;;;;;20.00;1.00;;;;;;2284721;60;1293;-87
2022/06/06 03:24:26;110058.00;0.37;190.93;30896.00;0.10;54.13;;;;;20.00;1.00;;;;;;2284730;60;1090;-87
2022/06/06 03:27:13;90830.00;0.30;157.74;0.00;0.00;0.62;;;;;19.80;1.00;;;;;;2284743;60;1432;-86
2022/06/06 03:29:53;75947.00;0.25;132.04;0.00;0.00;0.62;;;;;19.50;1.00;;;;;;2284712;60;1923;-88
2022/06/06 03:32:35;81110.00;0.27;140.95;0.00;0.00;0.62;;;;;19.50;1.00;;;;;;2284781;60;929;-87
2022/06/06 03:35:14;217303.00;0.72;375.70;0.00;0.00;0.62;;;;;19.40;1.00;;;;;;2284413;60;1347;-86
2022/06/06 03:37:49;188068.00;0.63;325.38;0.00;0.00;0.62;;;;;19.40;1.00;;;;;;2284748;60;1037;-88
2022/06/06 03:40:23;123319.00;0.41;213.81;0.00;0.00;0.62;;;;;19.20;1.00;;;;;;2284721;60;1127;-87
2022/06/06 03:43:01;164362.00;0.55;284.55;0.00;0.00;0.62;;;;;19.20;1.00;;;;;;2284698;60;1145;-88
2022/06/06 03:45:38;129434.00;0.43;224.35;62911.00;0.21;109.51;;;;;19.00;1.00;;;;;;2284669;60;1462;-88
2022/06/06 03:48:17;97390.00;0.32;169.07;0.00;0.00;0.62;;;;;19.20;1.00;;;;;;2284736;60;1734;-87
2022/06/06 03:50:52;39505.00;0.13;69.03;0.00;0.00;0.62;;;;;19.40;1.00;;;;;;2284713;60;1984;-87
2022/06/06 03:53:27;0.00;0.00;0.62;0.00;0.00;0.62;;;;;19.70;1.00;;;;;;2284710;60;1017;-87
2022/06/06 03:56:09;178704.00;0.60;309.26;29206.00;0.10;51.21;;;;;20.00;1.00;;;;;;2284497;60;1379;-87
2022/06/06 03:58:40;54820.00;0.18;95.52;0.00;0.00;0.62;;;;;20.00;1.00;;;;;;2284671;60;1108;-87
2022/06/06 04:01:10;14787.00;0.05;26.24;0.00;0.00;0.62;;;;;19.90;1.00;;;;;;2284659;60;1143;-86
2022/06/06 04:03:38;0.00;0.00;0.62;0.00;0.00;0.62;;;;;20.10;1.00;;;;;;2284711;60;1129;-87
2022/06/06 04:06:06;243627.00;0.81;420.99;80753.00;0.27;140.34;;;;;20.20;1.00;;;;;;2284489;60;1430;-86
2022/06/06 04:08:33;0.00;0.00;0.62;0.00;0.00;0.62;;;;;20.20;1.00;;;;;;2284704;60;1112;-86
2022/06/06 04:11:18;78257.00;0.26;136.03;0.00;0.00;0.62;;;;;20.10;1.00;;;;;;2284592;60;1984;-86
2022/06/06 04:13:58;54783.00;0.18;95.46;0.00;0.00;0.62;;;;;20.00;1.00;;;;;;2284693;60;1114;-86
2022/06/06 04:16:39;86728.00;0.29;150.66;0.00;0.00;0.62;;;;;20.10;1.00;;;;;;2284505;60;1357;-86
2022/06/06 04:19:23;170415.00;0.57;294.98;0.00;0.00;0.62;;;;;20.30;1.00;;;;;;2284597;60;1053;-87
2022/06/06 04:22:04;113297.00;0.38;196.52;47060.00;0.16;82.10;;;;;20.50;1.00;;;;;;2284642;60;1122;-88
2022/06/06 04:24:55;399336.00;1.33;688.66;76578.00;0.26;133.13;;;;;20.50;1.00;;;;;;2284615;60;1034;-87
2022/06/06 04:27:34;0.00;0.00;0.62;0.00;0.00;0.62;;;;;20.20;1.00;;;;;;2284612;60;1281;-87
2022/06/06 04:30:13;63799.00;0.21;111.04;0.00;0.00;0.62;;;;;20.20;1.00;;;;;;2284547;60;2020;-87
2022/06/06 04:33:01;123069.00;0.41;213.38;0.00;0.00;0.62;;;;;20.20;1.00;;;;;;2284494;60;986;-89
2022/06/06 04:35:40;116887.00;0.39;202.71;0.00;0.00;0.62;;;;;20.20;1.00;;;;;;2284592;60;1343;-87
2022/06/06 04:38:14;51963.00;0.17;90.58;0.00;0.00;0.62;;;;;20.20;1.00;;;;;;2284570;60;1094;-88
2022/06/06 04:40:51;148103.00;0.49;256.54;0.00;0.00;0.62;;;;;20.30;1.00;;;;;;2284564;60;1012;-87
2022/06/06 04:43:27;93616.00;0.31;162.55;0.00;0.00;0.62;;;;;20.30;1.00;;;;;;2284600;60;1075;-87
2022/06/06 04:46:04;20912.00;0.07;36.85;0.00;0.00;0.62;;;;;20.50;1.00;;;;;;2284352;60;1339;-86
2022/06/06 04:48:34;261707.00;0.87;452.08;0.00;0.00;0.62;;;;;20.40;1.00;;;;;;2284532;60;1175;-86
2022/06/06 04:51:01;38318.00;0.13;66.98;0.00;0.00;0.62;;;;;20.30;1.00;;;;;;2284482;60;1955;-86
2022/06/06 04:53:32;140079.00;0.47;242.71;0.00;0.00;0.62;;;;;20.20;1.00;;;;;;2284529;60;1065;-87
2022/06/06 04:56:01;147207.00;0.49;254.99;0.00;0.00;0.62;;;;;20.40;1.00;;;;;;2284465;60;1336;-87
2022/06/06 04:58:31;112580.00;0.38;195.28;0.00;0.00;0.62;;;;;20.60;1.00;;;;;;2284524;60;1002;-86
2022/06/06 05:01:03;175164.00;0.58;303.16;0.00;0.00;0.62;;;;;21.00;1.00;;;;;;2284439;60;990;-86
2022/06/06 05:03:30;36523.00;0.12;63.87;0.00;0.00;0.62;;;;;21.30;1.00;;;;;;2284560;60;1126;-86
2022/06/06 05:06:11;130783.00;0.44;226.68;0.00;0.00;0.62;;;;;21.50;1.00;;;;;;2284428;60;1395;-85
2022/06/06 05:08:56;382081.00;1.27;659.00;108577.00;0.36;188.37;;;;;21.90;1.00;;;;;;2284469;60;1141;-85
2022/06/06 05:11:40;236845.00;0.79;409.32;69899.00;0.23;121.59;;;;;22.40;1.00;;;;;;2284371;60;2054;-87
2022/06/06 05:14:31;465179.00;1.55;801.89;92148.00;0.31;160.02;;;;;22.40;1.00;;;;;;2284398;60;1027;-88
2022/06/06 05:17:32;440583.00;1.47;759.59;118699.00;0.40;205.84;;;;;22.10;1.00;;;;;;2284434;60;1128;-87
2022/06/06 05:20:13;372126.00;1.24;641.89;71350.00;0.24;124.09;;;;;22.00;1.00;;;;;;2284407;60;1011;-88
2022/06/06 05:23:01;314806.00;1.05;543.37;114279.00;0.38;198.21;;;;;22.00;1.00;;;;;;2284399;60;1134;-86
2022/06/06 05:25:49;310728.00;1.04;536.36;77302.00;0.26;134.38;;;;;22.30;1.00;;;;;;2284339;60;1428;-88
2022/06/06 05:28:36;316933.00;1.06;547.03;60105.00;0.20;104.66;;;;;22.60;1.00;;;;;;2284482;60;1050;-88
2022/06/06 05:31:17;535680.00;1.79;923.28;72615.00;0.24;126.28;;;;;22.30;1.00;;;;;;2284238;60;2006;-87
2022/06/06 05:33:53;343440.00;1.14;592.59;71267.00;0.24;123.95;;;;;21.90;1.00;;;;;;2284915;60;2291;-86
2022/06/06 05:36:39;453618.00;1.51;782.01;85988.00;0.29;149.38;;;;;22.20;1.00;;;;;;2285692;60;1485;-87
2022/06/06 05:39:36;110922.00;0.37;192.42;0.00;0.00;0.62;;;;;22.80;1.00;;;;;;2285772;60;1023;-87
2022/06/06 05:42:19;640846.00;2.14;1104.80;72875.00;0.24;126.73;;;;;23.70;1.00;;;;;;2285616;60;1634;-86
2022/06/06 05:45:01;423284.00;1.41;729.84;113309.00;0.38;196.54;;;;;25.20;1.00;;;;;;2285553;60;1600;-85
2022/06/06 05:47:39;378741.00;1.26;653.26;105613.00;0.35;183.26;;;;;26.20;1.00;;;;;;2285654;60;1697;-89
2022/06/06 05:50:31;367217.00;1.22;633.45;81813.00;0.27;142.17;;;;;27.30;1.00;;;;;;2285469;60;2020;-87
2022/06/06 05:53:34;329098.00;1.10;567.94;69917.00;0.23;121.62;;;;;28.40;1.00;;;;;;2285604;60;1767;-86
2022/06/06 05:56:19;471386.00;1.57;812.57;52266.00;0.17;91.10;;;;;28.80;1.00;;;;;;2284117;60;1356;-87
2022/06/06 05:59:04;278258.00;0.93;480.54;0.00;0.00;0.62;;;;;29.20;1.00;;;;;;2285367;60;1495;-89
2022/06/06 06:01:55;288023.00;0.96;497.33;47191.00;0.16;82.33;;;;;29.80;1.00;;;;;;2285537;60;1413;-88
2022/06/06 06:04:52;606138.00;2.02;1044.82;0.00;0.00;0.62;;;;;30.20;1.00;;;;;;2285033;60;1638;-88
2022/06/06 06:07:27;525017.00;1.75;904.91;72790.00;0.24;126.58;;;;;29.80;1.00;;;;;;2285583;60;1569;-88
2022/06/06 06:10:13;580073.00;1.93;999.82;53618.00;0.18;93.44;;;;;29.60;1.00;;;;;;2285557;60;1980;-89
2022/06/06 06:13:12;229153.00;0.76;396.09;0.00;0.00;0.62;;;;;29.90;1.00;;;;;;2285705;60;1178;-87
2022/06/06 06:15:41;537485.00;1.79;926.39;138354.00;0.46;239.73;;;;;30.20;1.00;;;;;;2294719;39;3589;-87
2022/06/06 06:18:14;230138.00;0.77;397.79;69832.00;0.23;121.47;;;;;30.60;1.00;;;;;;2289722;60;1250;-88
2022/06/06 06:20:51;275024.00;0.92;474.98;0.00;0.00;0.62;;;;;31.10;1.00;;;;;;2289679;60;1160;-88
2022/06/06 06:23:25;193914.00;0.65;335.45;0.00;0.00;0.62;;;;;31.30;1.00;;;;;;2289635;60;1514;-88
2022/06/06 06:25:54;216373.00;0.72;374.10;0.00;0.00;0.62;;;;;31.10;1.00;;;;;;2297185;39;3795;-89
2022/06/06 06:28:23;1258398.00;4.19;2196.17;167149.00;0.56;289.36;;;;;31.20;1.00;;;;;;2292520;55;3767;-87
2022/06/06 06:31:05;111666.00;0.37;193.70;0.00;0.00;0.62;;;;;31.00;1.00;;;;;;2285479;60;1926;-88
2022/06/06 06:33:49;165100.00;0.55;285.83;0.00;0.00;0.62;;;;;31.70;1.00;;;;;;2285446;60;1607;-88
2022/06/06 06:36:30;137321.00;0.46;237.95;61777.00;0.21;107.55;;;;;31.60;1.00;;;;;;2285371;60;1414;-87
2022/06/06 06:39:13;487571.00;1.63;840.43;22136.00;0.07;38.97;;;;;31.70;1.00;;;;;;2285616;60;1062;-88
2022/06/06 06:42:01;221038.00;0.74;382.13;0.00;0.00;0.62;;;;;31.70;1.00;;;;;;2285371;60;1686;-88
2022/06/06 06:44:31;194945.00;0.65;337.22;0.00;0.00;0.62;;;;;31.50;1.00;;;;;;2285411;60;1629;-86
2022/06/06 06:47:04;468529.00;1.56;807.66;101869.00;0.34;176.80;;;;;31.60;1.00;;;;;;2284623;60;1091;-87
2022/06/06 06:49:41;256278.00;0.85;442.75;240.00;0.00;1.04;;;;;31.70;1.00;;;;;;2289222;55;3749;-86
2022/06/06 06:52:31;197841.00;0.66;342.21;55746.00;0.19;97.12;;;;;31.70;1.00;;;;;;2288815;60;1935;-86
2022/06/06 06:55:13;91321.00;0.30;158.59;0.00;0.00;0.62;;;;;31.30;1.00;;;;;;2288785;60;1268;-86
2022/06/06 06:58:09;189888.00;0.63;328.52;0.00;0.00;0.62;;;;;31.30;1.00;;;;;;2288969;60;1111;-86
2022/06/06 07:00:44;199714.00;0.67;345.43;66957.00;0.22;116.50;;;;;30.80;1.00;;;;;;2288754;60;1201;-86
2022/06/06 07:09:39;0.00;0.00;0.62;0.00;0.00;0.62;;;;;31.00;1.00;;;;;;2288584;60;1354;-90
2022/06/06 07:12:26;171228.00;0.57;296.38;0.00;0.00;0.62;;;;;31.10;1.00;;;;;;2288903;60;2002;-89
2022/06/06 07:15:09;255148.00;0.85;440.80;0.00;0.00;0.62;;;;;30.40;1.00;;;;;;2288863;60;1282;-88
2022/06/06 07:17:41;170824.00;0.57;295.69;769.00;0.00;1.95;;;;;30.50;1.00;;;;;;2288832;60;1672;-87
2022/06/06 07:20:11;246806.00;0.82;426.46;28584.00;0.10;50.13;;;;;30.80;1.00;;;;;;2288837;60;1015;-87
2022/06/06 07:25:23;49381.00;0.16;86.12;0.00;0.00;0.62;;;;;32.20;1.00;;;;;;2288450;60;1368;-87
2022/06/06 07:27:52;84229.00;0.28;146.34;0.00;0.00;0.62;;;;;32.70;1.00;;;;;;2288920;60;1165;-86
2022/06/06 07:30:22;184294.00;0.61;318.88;59187.00;0.20;103.07;;;;;32.90;1.00;;;;;;2288689;60;2011;-85
2022/06/06 07:33:05;164474.00;0.55;284.75;0.00;0.00;0.62;;;;;33.60;1.00;;;;;;2288776;60;1227;-86
2022/06/06 07:38:18;745613.00;2.49;1286.43;39115.00;0.13;68.36;;;;;34.30;1.00;;;;;;2304713;39;3504;-85
2022/06/06 07:41:06;234427.00;0.78;405.16;0.00;0.00;0.62;;;;;34.60;1.00;;;;;;2284774;60;1227;-88
2022/06/06 07:43:49;140165.00;0.47;242.86;0.00;0.00;0.62;;;;;34.20;1.00;;;;;;2284712;60;1696;-87
2022/06/06 07:46:30;186532.00;0.62;322.74;0.00;0.00;0.62;;;;;34.20;1.00;;;;;;2284540;60;1392;-89
2022/06/06 07:49:05;196056.00;0.65;339.13;0.00;0.00;0.62;;;;;34.60;1.00;;;;;;2284735;60;1645;-86
2022/06/06 07:51:43;151353.00;0.50;262.14;0.00;0.00;0.62;;;;;34.20;1.00;;;;;;2284807;60;1980;-87
2022/06/06 07:54:23;57509.00;0.19;100.17;0.00;0.00;0.62;;;;;34.80;1.00;;;;;;2284770;60;1757;-90
2022/06/06 07:57:02;122469.00;0.41;212.34;0.00;0.00;0.62;;;;;34.20;1.00;;;;;;2284647;60;1544;-88
2022/06/06 07:59:46;364648.00;1.22;629.04;34438.00;0.11;60.26;;;;;33.30;1.00;;;;;;2314713;39;3620;-86
2022/06/06 08:02:46;349553.00;1.17;603.09;57737.00;0.19;100.56;;;;;33.50;1.00;;;;;;2284618;60;1180;-87
2022/06/06 08:05:29;498954.00;1.66;860.02;0.00;0.00;0.62;;;;;33.60;1.00;;;;;;2284537;60;1390;-88
2022/06/06 08:08:08;403804.00;1.35;696.34;0.00;0.00;0.62;;;;;32.90;1.00;;;;;;2284658;60;1708;-87
2022/06/06 08:10:41;487268.00;1.62;839.91;61395.00;0.20;106.89;;;;;33.00;1.00;;;;;;2284583;60;2009;-90
2022/06/06 08:13:28;494333.00;1.65;852.07;67906.00;0.23;118.14;;;;;33.50;1.00;;;;;;2284973;60;1618;-88
2022/06/06 08:16:14;403795.00;1.35;696.33;67002.00;0.22;116.58;;;;;32.80;1.00;;;;;;2284906;60;1312;-88
2022/06/06 08:19:09;550327.00;1.83;948.52;57234.00;0.19;99.69;;;;;32.50;1.00;;;;;;2284853;60;1079;-87
2022/06/06 08:21:39;254445.00;0.85;439.60;0.00;0.00;0.62;;;;;32.80;1.00;;;;;;2284829;60;1054;-87
2022/06/06 08:24:09;279870.00;0.93;483.31;0.00;0.00;0.62;;;;;33.10;1.00;;;;;;2284824;60;839;-85
2022/06/06 08:26:40;168841.00;0.56;292.27;0.00;0.00;0.62;;;;;32.80;1.00;;;;;;2284808;60;1481;-87
2022/06/06 08:29:14;367265.00;1.22;633.54;0.00;0.00;0.62;;;;;33.00;1.00;;;;;;2284850;60;1025;-87
2022/06/06 08:31:43;396547.00;1.32;683.87;61756.00;0.21;107.51;;;;;33.30;1.00;;;;;;2386100;39;3760;-88
2022/06/06 08:34:11;947463.00;3.16;1639.64;95457.00;0.32;165.73;;;;;33.50;1.00;;;;;;2289209;60;1536;-87
2022/06/06 08:37:06;540728.00;1.80;931.98;0.00;0.00;0.62;;;;;33.20;1.00;;;;;;2288757;60;1562;-87
2022/06/06 08:39:49;337236.00;1.12;581.92;663.00;0.00;1.77;;;;;33.40;1.00;;;;;;2288956;60;1465;-89
2022/06/06 08:42:37;241623.00;0.81;417.54;48899.00;0.16;85.28;;;;;33.90;1.00;;;;;;2288986;60;1562;-88
2022/06/06 08:45:26;312431.00;1.04;539.29;49180.00;0.16;85.77;;;;;33.60;1.00;;;;;;2289002;60;1722;-88
2022/06/06 08:48:08;349051.00;1.16;602.23;0.00;0.00;0.62;;;;;32.20;1.00;;;;;;2288174;60;1683;-88
2022/06/06 08:51:00;364872.00;1.22;629.42;26745.00;0.09;46.95;;;;;32.60;1.00;;;;;;2288986;60;1949;-89
2022/06/06 08:54:00;150098.00;0.50;259.98;0.00;0.00;0.62;;;;;31.50;1.00;;;;;;2289035;60;1771;-87
2022/06/06 08:57:04;488682.00;1.63;842.34;0.00;0.00;0.62;;;;;30.70;1.00;;;;;;2280385;60;1661;-87
2022/06/06 09:00:07;197542.00;0.66;341.69;54558.00;0.18;95.07;;;;;30.20;1.00;;;;;;2325860;39;3726;-87
2022/06/06 09:03:13;157855.00;0.53;273.34;0.00;0.00;0.62;;;;;30.90;1.00;;;;;;2288870;60;1631;-88
2022/06/06 09:06:17;502267.00;1.67;865.73;42670.00;0.14;74.51;;;;;31.00;1.00;;;;;;2288899;60;1399;-88
2022/06/06 09:09:32;173686.00;0.58;300.62;0.00;0.00;0.62;;;;;31.30;1.00;;;;;;2290035;39;3591;-88
2022/06/06 09:12:50;150011.00;0.50;259.83;0.00;0.00;0.62;;;;;31.50;1.00;;;;;;2280571;60;1920;-88
2022/06/06 09:21:02;420262.00;1.40;724.64;30673.00;0.10;53.75;;;;;31.10;1.00;;;;;;1611349;40;2775;-92
2022/06/06 09:26:08;1702917.00;5.68;3031.09;82235.00;0.27;142.90;;;;;30.40;1.00;;;;;;2286251;60;1373;-89
2022/06/06 09:32:02;1720452.00;5.73;3065.23;215509.00;0.72;372.62;;;;;30.10;1.00;;;;;;2318642;39;3687;-87
2022/06/06 09:37:15;113666.00;0.38;197.16;0.00;0.00;0.62;;;;;30.60;1.00;;;;;;2425279;40;2210;-88
2022/06/06 09:39:57;244905.00;0.82;423.19;0.00;0.00;0.62;;;;;30.70;1.00;;;;;;2284535;60;1110;-90
2022/06/06 09:45:30;1220406.00;4.07;2127.16;0.00;0.00;0.62;;;;;30.00;1.00;;;;;;2283058;60;1533;-87
2022/06/06 09:48:43;390435.00;1.30;673.36;345.00;0.00;1.22;;;;;29.40;1.00;;;;;;2284430;60;1755;-88
2022/06/06 09:51:41;187453.00;0.62;324.32;0.00;0.00;0.62;;;;;29.40;1.00;;;;;;2324488;40;3944;-87
2022/06/06 10:01:27;478775.00;1.60;825.29;66413.00;0.22;115.56;;;;;28.90;1.00;;;;;;2280395;61;794;-88
2022/06/06 10:04:29;575339.00;1.92;991.66;69691.00;0.23;121.23;;;;;29.50;1.00;;;;;;2280211;61;1143;-87
2022/06/06 10:07:41;366719.00;1.22;632.60;122758.00;0.41;212.84;;;;;29.30;1.00;;;;;;2280480;61;1333;-86
2022/06/06 10:13:16;1193044.00;3.98;2077.65;0.00;0.00;0.62;;;;;29.20;1.00;;;;;;2289799;60;1973;-91
2022/06/06 10:16:19;355772.00;1.19;613.78;67492.00;0.22;117.43;;;;;29.50;1.00;;;;;;2304860;55;3762;-88
2022/06/06 10:19:06;364850.00;1.22;629.38;69416.00;0.23;120.75;;;;;29.30;1.00;;;;;;2288516;60;1437;-87
2022/06/06 10:22:10;590333.00;1.97;1017.53;123578.00;0.41;214.25;;;;;28.70;1.00;;;;;;2289285;60;1293;-88
2022/06/06 10:25:12;803325.00;2.68;1386.92;107694.00;0.36;186.85;;;;;29.20;1.00;;;;;;2289122;60;1618;-87
2022/06/06 10:28:00;152900832.00;509.67;144910480.00;0.00;0.00;0.62;;;;;29.50;1.00;;;;;;2272091;60;1324;-88
2022/06/06 10:30:44;560099.00;1.87;965.37;1468.00;0.00;3.16;;;;;29.60;1.00;;;;;;2289028;60;1757;-88
2022/06/06 10:33:37;544138.00;1.81;937.85;32906.00;0.11;57.61;;;;;29.60;1.00;;;;;;2300184;55;3667;-88
2022/06/06 10:36:35;287089.00;0.96;495.72;0.00;0.00;0.62;;;;;29.20;1.00;;;;;;2284834;60;1547;-86
2022/06/06 10:39:33;305485.00;1.02;527.35;64705.00;0.22;112.61;;;;;28.40;1.00;;;;;;2297818;39;3594;-86
2022/06/06 10:44:54;1080562.00;3.60;1875.70;0.00;0.00;0.62;;;;;28.00;1.00;;;;;;2287569;61;1278;-89
2022/06/06 10:47:47;312612.00;1.04;539.60;30605.00;0.10;53.63;;;;;28.10;1.00;;;;;;2280742;61;1570;-91
2022/06/06 10:50:28;305144.00;1.02;526.76;79311.00;0.26;137.85;;;;;28.30;1.00;;;;;;2280797;61;1610;-89
2022/06/06 10:55:49;431086.00;1.44;743.25;0.00;0.00;0.62;;;;;28.00;1.00;;;;;;2318736;55;3761;-88
2022/06/06 11:01:33;1396365.00;4.65;2449.58;0.00;0.00;0.62;;;;;28.70;1.00;;;;;;2406637;39;3572;-86
2022/06/06 11:04:30;143065.00;0.48;247.85;0.00;0.00;0.62;;;;;29.20;1.00;;;;;;2290473;60;998;-90
2022/06/06 11:17:45;1227508.00;4.09;2140.03;0.00;0.00;0.62;;;;;29.50;1.00;;;;;;2319618;55;3647;-87
2022/06/06 11:20:52;128671.00;0.43;223.04;0.00;0.00;0.62;;;;;29.30;1.00;;;;;;2284911;60;1578;-87
2022/06/06 11:23:31;255050.00;0.85;440.64;0.00;0.00;0.62;;;;;29.00;1.00;;;;;;2286714;60;924;-87
2022/06/06 11:26:25;149914.00;0.50;259.66;0.00;0.00;0.62;;;;;29.10;1.00;;;;;;2284947;60;1418;-86
2022/06/06 11:29:25;190539.00;0.64;329.64;0.00;0.00;0.62;;;;;29.00;1.00;;;;;;2284938;60;1796;-88
2022/06/06 11:32:12;171478.00;0.57;296.81;0.00;0.00;0.62;;;;;29.30;1.00;;;;;;2284832;60;2306;-86
2022/06/06 11:35:09;336699.00;1.12;581.00;48776.00;0.16;85.07;;;;;29.70;1.00;;;;;;2284900;60;1418;-89
2022/06/06 11:38:13;326888.00;1.09;564.14;56862.00;0.19;99.05;;;;;30.00;1.00;;;;;;2284794;60;1451;-89
2022/06/06 11:41:21;249234.00;0.83;430.63;0.00;0.00;0.62;;;;;30.10;1.00;;;;;;2284883;60;1634;-89
2022/06/06 11:44:12;224389.00;0.75;387.90;59769.00;0.20;104.08;;;;;29.80;1.00;;;;;;2284814;60;1077;-87
2022/06/06 11:47:24;352169.00;1.17;607.59;0.00;0.00;0.62;;;;;29.40;1.00;;;;;;2280411;60;1650;-89